sensor_id;sensor_type;location;lat;lon;timestamp;temperature;humidity
32594;DHT22;19018;49.046;9.140;2022-09-12T00:01:10;16.00;56.60
32594;DHT22;19018;49.046;9.140;2022-09-12T00:03:36;15.90;56.50
32594;DHT22;19018;49.046;9.140;2022-09-12T00:06:06;15.90;56.60
32594;DHT22;19018;49.046;9.140;2022-09-12T00:11:02;15.90;56.70
32594;DHT22;19018;49.046;9.140;2022-09-12T00:13:28;15.70;56.60
32594;DHT22;19018;49.046;9.140;2022-09-12T00:15:53;15.80;56.70
32594;DHT22;19018;49.046;9.140;2022-09-12T00:18:19;15.80;56.70
32594;DHT22;19018;49.046;9.140;2022-09-12T00:20:45;15.80;56.60
32594;DHT22;19018;49.046;9.140;2022-09-12T00:23:11;15.70;56.60
32594;DHT22;19018;49.046;9.140;2022-09-12T00:25:44;15.70;56.60
32594;DHT22;19018;49.046;9.140;2022-09-12T00:28:10;15.60;56.60
32594;DHT22;19018;49.046;9.140;2022-09-12T00:30:42;15.70;56.60
32594;DHT22;19018;49.046;9.140;2022-09-12T00:33:08;15.60;56.60
32594;DHT22;19018;49.046;9.140;2022-09-12T00:35:39;15.60;56.60
32594;DHT22;19018;49.046;9.140;2022-09-12T00:38:05;15.60;56.60
32594;DHT22;19018;49.046;9.140;2022-09-12T00:42:56;15.50;56.60
32594;DHT22;19018;49.046;9.140;2022-09-12T00:45:23;15.50;56.60
32594;DHT22;19018;49.046;9.140;2022-09-12T00:47:51;15.50;56.60
32594;DHT22;19018;49.046;9.140;2022-09-12T00:50:17;15.40;56.70
32594;DHT22;19018;49.046;9.140;2022-09-12T00:52:53;15.40;56.70
32594;DHT22;19018;49.046;9.140;2022-09-12T00:55:22;15.40;56.70
32594;DHT22;19018;49.046;9.140;2022-09-12T01:02:41;15.30;56.70
32594;DHT22;19018;49.046;9.140;2022-09-12T01:05:08;15.20;56.70
32594;DHT22;19018;49.046;9.140;2022-09-12T01:07:34;15.30;56.80
32594;DHT22;19018;49.046;9.140;2022-09-12T01:10:01;15.20;56.70
32594;DHT22;19018;49.046;9.140;2022-09-12T01:12:26;15.30;56.80
32594;DHT22;19018;49.046;9.140;2022-09-12T01:17:18;15.20;56.70
32594;DHT22;19018;49.046;9.140;2022-09-12T01:25:06;15.10;56.70
32594;DHT22;19018;49.046;9.140;2022-09-12T01:35:26;15.00;56.70
32594;DHT22;19018;49.046;9.140;2022-09-12T01:40:24;15.00;56.80
32594;DHT22;19018;49.046;9.140;2022-09-12T01:45:43;14.90;56.70
32594;DHT22;19018;49.046;9.140;2022-09-12T01:48:18;14.90;56.70
32594;DHT22;19018;49.046;9.140;2022-09-12T01:55:57;14.80;56.80
32594;DHT22;19018;49.046;9.140;2022-09-12T01:58:26;14.80;56.80
32594;DHT22;19018;49.046;9.140;2022-09-12T02:03:19;14.80;56.80
32594;DHT22;19018;49.046;9.140;2022-09-12T02:05:52;14.70;56.80
32594;DHT22;19018;49.046;9.140;2022-09-12T02:08:21;14.70;56.80
32594;DHT22;19018;49.046;9.140;2022-09-12T02:15:49;14.60;56.80
32594;DHT22;19018;49.046;9.140;2022-09-12T02:18:18;14.60;56.80
32594;DHT22;19018;49.046;9.140;2022-09-12T02:20:44;14.60;56.80
32594;DHT22;19018;49.046;9.140;2022-09-12T02:23:12;14.50;56.80
32594;DHT22;19018;49.046;9.140;2022-09-12T02:25:41;14.50;56.80
32594;DHT22;19018;49.046;9.140;2022-09-12T02:28:08;14.50;56.80
32594;DHT22;19018;49.046;9.140;2022-09-12T02:30:38;14.50;56.80
32594;DHT22;19018;49.046;9.140;2022-09-12T02:33:06;14.50;56.90
32594;DHT22;19018;49.046;9.140;2022-09-12T02:35:38;14.40;56.90
32594;DHT22;19018;49.046;9.140;2022-09-12T02:38:09;14.40;56.90
32594;DHT22;19018;49.046;9.140;2022-09-12T02:40:36;14.40;56.90
32594;DHT22;19018;49.046;9.140;2022-09-12T02:43:03;14.30;56.90
32594;DHT22;19018;49.046;9.140;2022-09-12T02:45:28;14.30;56.90
32594;DHT22;19018;49.046;9.140;2022-09-12T02:47:57;14.30;56.90
32594;DHT22;19018;49.046;9.140;2022-09-12T02:50:24;14.30;56.90
32594;DHT22;19018;49.046;9.140;2022-09-12T02:52:50;14.20;56.90
32594;DHT22;19018;49.046;9.140;2022-09-12T02:55:18;14.20;56.90
32594;DHT22;19018;49.046;9.140;2022-09-12T02:57:43;14.20;57.00
32594;DHT22;19018;49.046;9.140;2022-09-12T03:00:09;14.20;57.00
32594;DHT22;19018;49.046;9.140;2022-09-12T03:05:23;14.10;57.00
32594;DHT22;19018;49.046;9.140;2022-09-12T03:23:11;13.90;57.00
32594;DHT22;19018;49.046;9.140;2022-09-12T03:25:41;13.90;57.00
32594;DHT22;19018;49.046;9.140;2022-09-12T03:28:09;13.90;57.00
32594;DHT22;19018;49.046;9.140;2022-09-12T03:30:39;13.90;57.00
32594;DHT22;19018;49.046;9.140;2022-09-12T03:35:32;13.80;57.00
32594;DHT22;19018;49.046;9.140;2022-09-12T03:37:57;13.80;57.00
32594;DHT22;19018;49.046;9.140;2022-09-12T03:40:23;13.80;57.00
32594;DHT22;19018;49.046;9.140;2022-09-12T03:42:48;13.80;57.10
32594;DHT22;19018;49.046;9.140;2022-09-12T03:45:14;13.70;57.00
32594;DHT22;19018;49.046;9.140;2022-09-12T03:47:40;13.70;57.10
32594;DHT22;19018;49.046;9.140;2022-09-12T03:50:06;13.70;57.10
32594;DHT22;19018;49.046;9.140;2022-09-12T03:52:32;13.70;57.10
32594;DHT22;19018;49.046;9.140;2022-09-12T03:54:57;13.70;57.10
32594;DHT22;19018;49.046;9.140;2022-09-12T03:57:23;13.60;57.00
32594;DHT22;19018;49.046;9.140;2022-09-12T03:59:49;13.60;57.00
32594;DHT22;19018;49.046;9.140;2022-09-12T04:02:17;13.60;57.00
32594;DHT22;19018;49.046;9.140;2022-09-12T04:04:43;13.60;57.10
32594;DHT22;19018;49.046;9.140;2022-09-12T04:09:35;13.60;57.10
32594;DHT22;19018;49.046;9.140;2022-09-12T04:12:00;13.50;57.10
32594;DHT22;19018;49.046;9.140;2022-09-12T04:16:52;13.50;57.10
32594;DHT22;19018;49.046;9.140;2022-09-12T04:19:17;13.50;57.10
32594;DHT22;19018;49.046;9.140;2022-09-12T04:21:46;13.50;57.20
32594;DHT22;19018;49.046;9.140;2022-09-12T04:24:15;13.40;57.10
32594;DHT22;19018;49.046;9.140;2022-09-12T04:26:41;13.40;57.10
32594;DHT22;19018;49.046;9.140;2022-09-12T04:29:06;13.40;57.10
32594;DHT22;19018;49.046;9.140;2022-09-12T04:31:39;13.40;57.20
32594;DHT22;19018;49.046;9.140;2022-09-12T04:34:11;13.40;57.20
32594;DHT22;19018;49.046;9.140;2022-09-12T04:36:37;13.40;57.20
32594;DHT22;19018;49.046;9.140;2022-09-12T04:39:03;13.30;57.10
32594;DHT22;19018;49.046;9.140;2022-09-12T04:41:31;13.30;57.20
32594;DHT22;19018;49.046;9.140;2022-09-12T04:44:00;13.30;57.20
32594;DHT22;19018;49.046;9.140;2022-09-12T04:48:52;13.30;57.30
32594;DHT22;19018;49.046;9.140;2022-09-12T04:51:19;13.20;57.20
32594;DHT22;19018;49.046;9.140;2022-09-12T04:53:48;13.20;57.20
32594;DHT22;19018;49.046;9.140;2022-09-12T04:56:14;13.20;57.20
32594;DHT22;19018;49.046;9.140;2022-09-12T04:58:39;13.20;57.20
32594;DHT22;19018;49.046;9.140;2022-09-12T05:01:06;13.20;57.30
32594;DHT22;19018;49.046;9.140;2022-09-12T05:03:32;13.20;57.20
32594;DHT22;19018;49.046;9.140;2022-09-12T05:05:58;13.10;57.20
32594;DHT22;19018;49.046;9.140;2022-09-12T05:08:24;13.10;57.20
32594;DHT22;19018;49.046;9.140;2022-09-12T05:10:50;13.10;57.20
32594;DHT22;19018;49.046;9.140;2022-09-12T05:13:15;13.10;57.20
32594;DHT22;19018;49.046;9.140;2022-09-12T05:15:41;13.10;57.20
32594;DHT22;19018;49.046;9.140;2022-09-12T05:18:06;13.00;57.20
32594;DHT22;19018;49.046;9.140;2022-09-12T05:20:32;13.00;57.20
32594;DHT22;19018;49.046;9.140;2022-09-12T05:22:58;13.00;57.20
32594;DHT22;19018;49.046;9.140;2022-09-12T05:25:24;13.00;57.30
32594;DHT22;19018;49.046;9.140;2022-09-12T05:27:53;13.00;57.30
32594;DHT22;19018;49.046;9.140;2022-09-12T05:30:18;12.90;57.20
32594;DHT22;19018;49.046;9.140;2022-09-12T05:32:44;12.90;57.20
32594;DHT22;19018;49.046;9.140;2022-09-12T05:35:10;13.00;57.40
32594;DHT22;19018;49.046;9.140;2022-09-12T05:37:36;12.90;57.30
32594;DHT22;19018;49.046;9.140;2022-09-12T05:40:02;12.90;57.30
32594;DHT22;19018;49.046;9.140;2022-09-12T05:42:31;12.90;57.30
32594;DHT22;19018;49.046;9.140;2022-09-12T05:44:57;12.90;57.30
32594;DHT22;19018;49.046;9.140;2022-09-12T05:49:49;12.90;57.40
32594;DHT22;19018;49.046;9.140;2022-09-12T05:52:15;12.80;57.40
32594;DHT22;19018;49.046;9.140;2022-09-12T05:54:41;12.80;57.40
32594;DHT22;19018;49.046;9.140;2022-09-12T05:57:07;12.80;57.50
32594;DHT22;19018;49.046;9.140;2022-09-12T05:59:32;12.80;57.50
32594;DHT22;19018;49.046;9.140;2022-09-12T06:01:58;12.80;57.50
32594;DHT22;19018;49.046;9.140;2022-09-12T06:04:24;12.80;57.50
32594;DHT22;19018;49.046;9.140;2022-09-12T06:06:51;12.80;57.40
32594;DHT22;19018;49.046;9.140;2022-09-12T06:09:17;12.80;57.50
32594;DHT22;19018;49.046;9.140;2022-09-12T06:11:43;12.80;57.50
32594;DHT22;19018;49.046;9.140;2022-09-12T06:14:10;12.80;57.50
32594;DHT22;19018;49.046;9.140;2022-09-12T06:16:36;12.80;57.50
32594;DHT22;19018;49.046;9.140;2022-09-12T06:19:06;12.80;57.50
32594;DHT22;19018;49.046;9.140;2022-09-12T06:21:31;12.90;57.60
32594;DHT22;19018;49.046;9.140;2022-09-12T06:23:58;12.90;57.60
32594;DHT22;19018;49.046;9.140;2022-09-12T06:26:24;12.90;57.70
32594;DHT22;19018;49.046;9.140;2022-09-12T06:28:50;12.90;57.70
32594;DHT22;19018;49.046;9.140;2022-09-12T06:31:19;13.00;57.80
32594;DHT22;19018;49.046;9.140;2022-09-12T06:33:49;13.00;57.90
32594;DHT22;19018;49.046;9.140;2022-09-12T06:36:16;13.10;58.00
32594;DHT22;19018;49.046;9.140;2022-09-12T06:41:44;13.20;58.00
32594;DHT22;19018;49.046;9.140;2022-09-12T06:44:14;13.20;58.60
32594;DHT22;19018;49.046;9.140;2022-09-12T06:49:08;13.30;58.20
32594;DHT22;19018;49.046;9.140;2022-09-12T06:51:34;13.40;58.30
32594;DHT22;19018;49.046;9.140;2022-09-12T06:54:03;13.40;58.40
32594;DHT22;19018;49.046;9.140;2022-09-12T06:56:29;13.50;58.50
32594;DHT22;19018;49.046;9.140;2022-09-12T06:58:55;13.60;58.50
32594;DHT22;19018;49.046;9.140;2022-09-12T07:01:28;13.60;58.60
32594;DHT22;19018;49.046;9.140;2022-09-12T07:03:55;13.60;58.60
32594;DHT22;19018;49.046;9.140;2022-09-12T07:06:22;13.70;58.80
32594;DHT22;19018;49.046;9.140;2022-09-12T07:08:48;13.80;58.90
32594;DHT22;19018;49.046;9.140;2022-09-12T07:11:15;13.80;59.50
32594;DHT22;19018;49.046;9.140;2022-09-12T07:13:46;13.80;59.40
32594;DHT22;19018;49.046;9.140;2022-09-12T07:16:12;13.90;62.20
32594;DHT22;19018;49.046;9.140;2022-09-12T07:18:38;14.00;62.10
32594;DHT22;19018;49.046;9.140;2022-09-12T07:21:08;14.10;60.80
32594;DHT22;19018;49.046;9.140;2022-09-12T07:23:34;14.10;60.50
32594;DHT22;19018;49.046;9.140;2022-09-12T07:26:00;14.20;62.10
32594;DHT22;19018;49.046;9.140;2022-09-12T07:28:27;14.30;61.50
32594;DHT22;19018;49.046;9.140;2022-09-12T07:30:53;14.30;61.70
32594;DHT22;19018;49.046;9.140;2022-09-12T07:33:27;14.40;62.50
32594;DHT22;19018;49.046;9.140;2022-09-12T07:35:53;14.50;63.20
32594;DHT22;19018;49.046;9.140;2022-09-12T07:38:19;14.50;62.40
32594;DHT22;19018;49.046;9.140;2022-09-12T07:40:44;14.70;62.10
32594;DHT22;19018;49.046;9.140;2022-09-12T07:43:10;14.50;61.90
32594;DHT22;19018;49.046;9.140;2022-09-12T07:45:36;14.80;62.80
32594;DHT22;19018;49.046;9.140;2022-09-12T07:48:02;15.00;63.10
32594;DHT22;19018;49.046;9.140;2022-09-12T07:50:27;15.00;62.90
32594;DHT22;19018;49.046;9.140;2022-09-12T07:52:53;15.20;63.70
32594;DHT22;19018;49.046;9.140;2022-09-12T07:55:19;15.30;63.90
32594;DHT22;19018;49.046;9.140;2022-09-12T07:57:48;15.40;64.00
32594;DHT22;19018;49.046;9.140;2022-09-12T08:00:14;15.50;64.60
32594;DHT22;19018;49.046;9.140;2022-09-12T08:02:40;15.40;64.90
32594;DHT22;19018;49.046;9.140;2022-09-12T08:05:05;15.80;65.90
32594;DHT22;19018;49.046;9.140;2022-09-12T08:07:31;15.90;65.70
32594;DHT22;19018;49.046;9.140;2022-09-12T08:09:58;16.00;65.80
32594;DHT22;19018;49.046;9.140;2022-09-12T08:12:25;16.20;65.80
32594;DHT22;19018;49.046;9.140;2022-09-12T08:14:51;16.30;66.00
32594;DHT22;19018;49.046;9.140;2022-09-12T08:17:17;16.50;66.30
32594;DHT22;19018;49.046;9.140;2022-09-12T08:19:42;16.60;66.50
32594;DHT22;19018;49.046;9.140;2022-09-12T08:22:09;16.80;66.70
32594;DHT22;19018;49.046;9.140;2022-09-12T08:24:35;16.90;67.00
32594;DHT22;19018;49.046;9.140;2022-09-12T08:27:01;17.10;67.50
32594;DHT22;19018;49.046;9.140;2022-09-12T08:29:26;17.20;67.40
32594;DHT22;19018;49.046;9.140;2022-09-12T08:31:52;17.40;67.60
32594;DHT22;19018;49.046;9.140;2022-09-12T08:36:45;17.70;67.60
32594;DHT22;19018;49.046;9.140;2022-09-12T08:39:11;17.90;67.40
32594;DHT22;19018;49.046;9.140;2022-09-12T08:41:37;18.00;67.30
32594;DHT22;19018;49.046;9.140;2022-09-12T08:49:04;18.50;67.30
32594;DHT22;19018;49.046;9.140;2022-09-12T08:51:32;18.70;67.50
32594;DHT22;19018;49.046;9.140;2022-09-12T08:53:58;18.90;67.70
32594;DHT22;19018;49.046;9.140;2022-09-12T08:56:25;19.00;67.90
32594;DHT22;19018;49.046;9.140;2022-09-12T08:58:53;19.20;67.60
32594;DHT22;19018;49.046;9.140;2022-09-12T09:01:39;19.40;67.60
32594;DHT22;19018;49.046;9.140;2022-09-12T09:17:14;20.40;67.30
32594;DHT22;19018;49.046;9.140;2022-09-12T09:19:41;20.60;67.10
32594;DHT22;19018;49.046;9.140;2022-09-12T09:25:05;20.90;66.90
32594;DHT22;19018;49.046;9.140;2022-09-12T09:27:32;21.00;66.90
32594;DHT22;19018;49.046;9.140;2022-09-12T09:29:59;21.20;66.90
32594;DHT22;19018;49.046;9.140;2022-09-12T09:32:26;21.30;66.90
32594;DHT22;19018;49.046;9.140;2022-09-12T09:34:52;21.50;66.90
32594;DHT22;19018;49.046;9.140;2022-09-12T09:37:19;21.70;66.50
32594;DHT22;19018;49.046;9.140;2022-09-12T09:42:19;22.10;66.50
32594;DHT22;19018;49.046;9.140;2022-09-12T09:44:47;22.30;66.40
32594;DHT22;19018;49.046;9.140;2022-09-12T09:47:13;22.40;66.20
32594;DHT22;19018;49.046;9.140;2022-09-12T09:49:39;22.50;66.00
32594;DHT22;19018;49.046;9.140;2022-09-12T09:52:06;22.50;66.50
32594;DHT22;19018;49.046;9.140;2022-09-12T09:56:57;22.90;65.50
32594;DHT22;19018;49.046;9.140;2022-09-12T09:59:27;23.10;65.40
32594;DHT22;19018;49.046;9.140;2022-09-12T10:01:54;23.20;65.30
32594;DHT22;19018;49.046;9.140;2022-09-12T10:04:22;23.40;65.50
32594;DHT22;19018;49.046;9.140;2022-09-12T10:11:39;23.80;64.90
32594;DHT22;19018;49.046;9.140;2022-09-12T10:14:14;23.90;64.70
32594;DHT22;19018;49.046;9.140;2022-09-12T10:16:50;24.00;64.40
32594;DHT22;19018;49.046;9.140;2022-09-12T10:19:21;24.20;64.30
32594;DHT22;19018;49.046;9.140;2022-09-12T10:21:52;24.20;64.10
32594;DHT22;19018;49.046;9.140;2022-09-12T10:26:45;24.50;63.60
32594;DHT22;19018;49.046;9.140;2022-09-12T10:29:15;24.60;63.40
32594;DHT22;19018;49.046;9.140;2022-09-12T10:31:43;24.70;63.30
32594;DHT22;19018;49.046;9.140;2022-09-12T10:36:48;24.90;62.90
32594;DHT22;19018;49.046;9.140;2022-09-12T10:39:17;25.10;62.80
32594;DHT22;19018;49.046;9.140;2022-09-12T10:41:43;25.10;62.30
32594;DHT22;19018;49.046;9.140;2022-09-12T10:44:25;25.20;62.20
32594;DHT22;19018;49.046;9.140;2022-09-12T10:46:52;25.30;61.80
32594;DHT22;19018;49.046;9.140;2022-09-12T10:51:45;25.50;60.40
32594;DHT22;19018;49.046;9.140;2022-09-12T10:54:11;25.50;61.50
32594;DHT22;19018;49.046;9.140;2022-09-12T11:09:01;26.10;61.10
32594;DHT22;19018;49.046;9.140;2022-09-12T11:17:04;26.40;60.00
32594;DHT22;19018;49.046;9.140;2022-09-12T11:19:36;26.40;60.00
32594;DHT22;19018;49.046;9.140;2022-09-12T11:34:22;26.90;59.90
32594;DHT22;19018;49.046;9.140;2022-09-12T11:37:13;26.90;59.60
32594;DHT22;19018;49.046;9.140;2022-09-12T11:39:45;27.00;59.60
32594;DHT22;19018;49.046;9.140;2022-09-12T11:42:17;27.10;59.50
32594;DHT22;19018;49.046;9.140;2022-09-12T11:44:45;27.20;59.60
32594;DHT22;19018;49.046;9.140;2022-09-12T11:47:12;27.30;59.70
32594;DHT22;19018;49.046;9.140;2022-09-12T11:49:39;27.30;59.20
32594;DHT22;19018;49.046;9.140;2022-09-12T11:52:06;27.40;57.70
32594;DHT22;19018;49.046;9.140;2022-09-12T11:59:51;27.60;55.90
32594;DHT22;19018;49.046;9.140;2022-09-12T12:02:39;27.70;54.20
32594;DHT22;19018;49.046;9.140;2022-09-12T12:05:19;27.70;55.30
32594;DHT22;19018;49.046;9.140;2022-09-12T12:07:53;27.70;56.80
32594;DHT22;19018;49.046;9.140;2022-09-12T12:10:23;27.80;57.10
32594;DHT22;19018;49.046;9.140;2022-09-12T12:12:51;27.90;57.30
32594;DHT22;19018;49.046;9.140;2022-09-12T12:15:17;27.90;57.60
32594;DHT22;19018;49.046;9.140;2022-09-12T12:17:43;28.00;57.10
32594;DHT22;19018;49.046;9.140;2022-09-12T12:20:14;28.00;57.20
32594;DHT22;19018;49.046;9.140;2022-09-12T12:22:50;28.10;57.10
32594;DHT22;19018;49.046;9.140;2022-09-12T12:27:52;28.30;57.00
32594;DHT22;19018;49.046;9.140;2022-09-12T12:46:08;28.80;57.00
32594;DHT22;19018;49.046;9.140;2022-09-12T12:48:35;28.80;57.10
32594;DHT22;19018;49.046;9.140;2022-09-12T12:54:00;29.00;57.20
32594;DHT22;19018;49.046;9.140;2022-09-12T12:58:59;29.00;56.60
32594;DHT22;19018;49.046;9.140;2022-09-12T13:01:25;29.10;56.70
32594;DHT22;19018;49.046;9.140;2022-09-12T13:03:53;29.10;56.50
32594;DHT22;19018;49.046;9.140;2022-09-12T13:08:54;29.20;51.90
32594;DHT22;19018;49.046;9.140;2022-09-12T13:11:31;29.20;54.30
32594;DHT22;19018;49.046;9.140;2022-09-12T13:13:58;29.20;55.00
32594;DHT22;19018;49.046;9.140;2022-09-12T13:19:03;29.30;52.20
32594;DHT22;19018;49.046;9.140;2022-09-12T13:21:29;29.30;52.00
32594;DHT22;19018;49.046;9.140;2022-09-12T13:24:13;29.30;48.50
32594;DHT22;19018;49.046;9.140;2022-09-12T13:26:41;29.30;51.80
32594;DHT22;19018;49.046;9.140;2022-09-12T13:29:15;29.30;51.50
32594;DHT22;19018;49.046;9.140;2022-09-12T13:31:40;29.30;52.30
32594;DHT22;19018;49.046;9.140;2022-09-12T13:34:07;29.30;53.50
32594;DHT22;19018;49.046;9.140;2022-09-12T13:44:09;29.30;53.30
32594;DHT22;19018;49.046;9.140;2022-09-12T13:46:37;29.40;53.50
32594;DHT22;19018;49.046;9.140;2022-09-12T13:49:37;29.30;53.90
32594;DHT22;19018;49.046;9.140;2022-09-12T13:51:58;29.40;54.00
32594;DHT22;19018;49.046;9.140;2022-09-12T13:54:25;29.30;53.30
32594;DHT22;19018;49.046;9.140;2022-09-12T13:56:51;29.30;53.30
32594;DHT22;19018;49.046;9.140;2022-09-12T13:59:17;29.30;53.10
32594;DHT22;19018;49.046;9.140;2022-09-12T14:01:43;29.30;52.90
32594;DHT22;19018;49.046;9.140;2022-09-12T14:04:13;29.30;53.00
32594;DHT22;19018;49.046;9.140;2022-09-12T14:06:58;29.30;53.40
32594;DHT22;19018;49.046;9.140;2022-09-12T14:09:25;29.30;53.40
32594;DHT22;19018;49.046;9.140;2022-09-12T14:11:53;29.30;53.30
32594;DHT22;19018;49.046;9.140;2022-09-12T14:17:17;29.20;52.50
32594;DHT22;19018;49.046;9.140;2022-09-12T14:19:46;29.20;52.20
32594;DHT22;19018;49.046;9.140;2022-09-12T14:22:12;29.10;52.20
32594;DHT22;19018;49.046;9.140;2022-09-12T14:24:46;29.10;50.70
32594;DHT22;19018;49.046;9.140;2022-09-12T14:27:21;29.10;51.80
32594;DHT22;19018;49.046;9.140;2022-09-12T14:29:50;29.10;50.20
32594;DHT22;19018;49.046;9.140;2022-09-12T14:32:22;29.00;51.20
32594;DHT22;19018;49.046;9.140;2022-09-12T14:37:33;29.00;48.80
32594;DHT22;19018;49.046;9.140;2022-09-12T14:39:58;28.90;51.10
32594;DHT22;19018;49.046;9.140;2022-09-12T14:42:25;28.80;51.60
32594;DHT22;19018;49.046;9.140;2022-09-12T14:44:55;28.80;51.80
32594;DHT22;19018;49.046;9.140;2022-09-12T14:47:22;28.80;51.90
32594;DHT22;19018;49.046;9.140;2022-09-12T14:49:49;28.80;52.00
32594;DHT22;19018;49.046;9.140;2022-09-12T14:52:25;28.70;52.10
32594;DHT22;19018;49.046;9.140;2022-09-12T14:54:59;28.70;51.80
32594;DHT22;19018;49.046;9.140;2022-09-12T14:57:40;28.60;51.80
32594;DHT22;19018;49.046;9.140;2022-09-12T15:02:38;28.50;52.00
32594;DHT22;19018;49.046;9.140;2022-09-12T15:07:34;28.50;52.40
32594;DHT22;19018;49.046;9.140;2022-09-12T15:10:00;28.40;52.40
32594;DHT22;19018;49.046;9.140;2022-09-12T15:12:27;28.40;52.60
32594;DHT22;19018;49.046;9.140;2022-09-12T15:14:54;28.30;52.50
32594;DHT22;19018;49.046;9.140;2022-09-12T15:19:48;28.30;51.90
32594;DHT22;19018;49.046;9.140;2022-09-12T15:24:39;28.20;52.20
32594;DHT22;19018;49.046;9.140;2022-09-12T15:29:31;28.10;52.30
32594;DHT22;19018;49.046;9.140;2022-09-12T15:31:56;28.10;52.30
32594;DHT22;19018;49.046;9.140;2022-09-12T15:34:22;28.00;51.90
32594;DHT22;19018;49.046;9.140;2022-09-12T15:36:47;28.00;52.30
32594;DHT22;19018;49.046;9.140;2022-09-12T15:39:13;27.90;52.10
32594;DHT22;19018;49.046;9.140;2022-09-12T15:41:38;27.90;52.30
32594;DHT22;19018;49.046;9.140;2022-09-12T15:44:04;27.90;52.20
32594;DHT22;19018;49.046;9.140;2022-09-12T15:46:30;27.80;52.20
32594;DHT22;19018;49.046;9.140;2022-09-12T15:48:56;27.80;52.30
32594;DHT22;19018;49.046;9.140;2022-09-12T15:51:21;27.80;52.30
32594;DHT22;19018;49.046;9.140;2022-09-12T15:53:47;27.70;52.30
32594;DHT22;19018;49.046;9.140;2022-09-12T15:56:15;27.70;52.30
32594;DHT22;19018;49.046;9.140;2022-09-12T15:58:40;27.70;51.70
32594;DHT22;19018;49.046;9.140;2022-09-12T16:01:08;27.60;52.10
32594;DHT22;19018;49.046;9.140;2022-09-12T16:03:34;27.60;52.20
32594;DHT22;19018;49.046;9.140;2022-09-12T16:06:00;27.50;52.10
32594;DHT22;19018;49.046;9.140;2022-09-12T16:08:27;27.50;52.20
32594;DHT22;19018;49.046;9.140;2022-09-12T16:10:54;27.50;52.20
32594;DHT22;19018;49.046;9.140;2022-09-12T16:13:21;27.40;52.10
32594;DHT22;19018;49.046;9.140;2022-09-12T16:15:47;27.40;52.10
32594;DHT22;19018;49.046;9.140;2022-09-12T16:18:12;27.30;51.80
32594;DHT22;19018;49.046;9.140;2022-09-12T16:20:39;27.30;51.70
32594;DHT22;19018;49.046;9.140;2022-09-12T16:23:05;27.20;51.60
32594;DHT22;19018;49.046;9.140;2022-09-12T16:25:30;27.20;51.90
32594;DHT22;19018;49.046;9.140;2022-09-12T16:27:56;27.20;52.00
32594;DHT22;19018;49.046;9.140;2022-09-12T16:35:13;27.10;52.00
32594;DHT22;19018;49.046;9.140;2022-09-12T16:37:40;27.00;52.00
32594;DHT22;19018;49.046;9.140;2022-09-12T16:40:05;27.00;52.00
32594;DHT22;19018;49.046;9.140;2022-09-12T16:42:31;27.00;52.00
32594;DHT22;19018;49.046;9.140;2022-09-12T16:44:57;26.90;52.10
32594;DHT22;19018;49.046;9.140;2022-09-12T16:47:22;26.90;52.10
32594;DHT22;19018;49.046;9.140;2022-09-12T16:49:48;26.80;52.10
32594;DHT22;19018;49.046;9.140;2022-09-12T16:52:15;26.80;52.00
32594;DHT22;19018;49.046;9.140;2022-09-12T16:54:41;26.80;52.00
32594;DHT22;19018;49.046;9.140;2022-09-12T16:57:08;26.70;51.90
32594;DHT22;19018;49.046;9.140;2022-09-12T16:59:34;26.70;51.90
32594;DHT22;19018;49.046;9.140;2022-09-12T17:04:26;26.60;51.60
32594;DHT22;19018;49.046;9.140;2022-09-12T17:06:52;26.60;51.80
32594;DHT22;19018;49.046;9.140;2022-09-12T17:09:17;26.60;51.80
32594;DHT22;19018;49.046;9.140;2022-09-12T17:11:44;26.50;51.80
32594;DHT22;19018;49.046;9.140;2022-09-12T17:14:09;26.40;51.80
32594;DHT22;19018;49.046;9.140;2022-09-12T17:16:36;26.40;51.80
32594;DHT22;19018;49.046;9.140;2022-09-12T17:19:03;26.30;51.70
32594;DHT22;19018;49.046;9.140;2022-09-12T17:21:31;26.30;51.50
32594;DHT22;19018;49.046;9.140;2022-09-12T17:26:23;26.20;51.50
32594;DHT22;19018;49.046;9.140;2022-09-12T17:28:49;26.20;51.60
32594;DHT22;19018;49.046;9.140;2022-09-12T17:31:15;26.10;51.50
32594;DHT22;19018;49.046;9.140;2022-09-12T17:36:08;26.00;51.40
32594;DHT22;19018;49.046;9.140;2022-09-12T17:38:35;26.00;51.40
32594;DHT22;19018;49.046;9.140;2022-09-12T17:41:08;26.00;51.40
32594;DHT22;19018;49.046;9.140;2022-09-12T17:43:34;25.90;51.40
32594;DHT22;19018;49.046;9.140;2022-09-12T17:46:00;25.90;51.40
32594;DHT22;19018;49.046;9.140;2022-09-12T17:48:25;25.90;51.40
32594;DHT22;19018;49.046;9.140;2022-09-12T17:50:51;25.80;51.40
32594;DHT22;19018;49.046;9.140;2022-09-12T17:53:17;25.70;51.30
32594;DHT22;19018;49.046;9.140;2022-09-12T17:55:43;25.70;51.30
32594;DHT22;19018;49.046;9.140;2022-09-12T17:58:08;25.70;51.30
32594;DHT22;19018;49.046;9.140;2022-09-12T18:00:34;25.60;51.20
32594;DHT22;19018;49.046;9.140;2022-09-12T18:03:21;25.50;51.10
32594;DHT22;19018;49.046;9.140;2022-09-12T18:05:48;25.50;51.00
32594;DHT22;19018;49.046;9.140;2022-09-12T18:08:14;25.50;51.00
32594;DHT22;19018;49.046;9.140;2022-09-12T18:10:39;25.50;51.00
32594;DHT22;19018;49.046;9.140;2022-09-12T18:13:05;25.30;50.90
32594;DHT22;19018;49.046;9.140;2022-09-12T18:15:34;25.30;50.90
32594;DHT22;19018;49.046;9.140;2022-09-12T18:18:00;25.30;50.90
32594;DHT22;19018;49.046;9.140;2022-09-12T18:20:26;25.10;50.80
32594;DHT22;19018;49.046;9.140;2022-09-12T18:22:51;25.10;50.70
32594;DHT22;19018;49.046;9.140;2022-09-12T18:25:17;25.10;50.60
32594;DHT22;19018;49.046;9.140;2022-09-12T18:27:42;25.00;50.60
32594;DHT22;19018;49.046;9.140;2022-09-12T18:30:09;24.90;50.50
32594;DHT22;19018;49.046;9.140;2022-09-12T18:32:35;24.90;50.50
32594;DHT22;19018;49.046;9.140;2022-09-12T18:35:00;24.80;50.40
32594;DHT22;19018;49.046;9.140;2022-09-12T18:37:26;24.70;50.40
32594;DHT22;19018;49.046;9.140;2022-09-12T18:39:51;24.70;50.40
32594;DHT22;19018;49.046;9.140;2022-09-12T18:42:17;24.60;50.30
32594;DHT22;19018;49.046;9.140;2022-09-12T18:44:42;24.50;50.30
32594;DHT22;19018;49.046;9.140;2022-09-12T18:47:08;24.50;50.30
32594;DHT22;19018;49.046;9.140;2022-09-12T18:49:33;24.40;50.30
32594;DHT22;19018;49.046;9.140;2022-09-12T18:52:00;24.30;50.10
32594;DHT22;19018;49.046;9.140;2022-09-12T18:56:52;24.20;50.20
32594;DHT22;19018;49.046;9.140;2022-09-12T18:59:17;24.10;50.10
32594;DHT22;19018;49.046;9.140;2022-09-12T19:01:43;24.00;50.10
32594;DHT22;19018;49.046;9.140;2022-09-12T19:04:09;24.00;50.10
32594;DHT22;19018;49.046;9.140;2022-09-12T19:06:36;23.90;50.10
32594;DHT22;19018;49.046;9.140;2022-09-12T19:09:02;23.80;50.10
32594;DHT22;19018;49.046;9.140;2022-09-12T19:11:28;23.70;50.00
32594;DHT22;19018;49.046;9.140;2022-09-12T19:16:23;23.60;50.00
32594;DHT22;19018;49.046;9.140;2022-09-12T19:18:49;23.50;50.00